sensor_id;sensor_type;location;lat;lon;timestamp;P1;durP1;ratioP1;P2;durP2;ratioP2
65871;SDS011;52653;50.080;21.992;2023-08-06T00:01:49;26.30;;;17.90;;
65871;SDS011;52653;50.080;21.992;2023-08-06T00:04:42;23.70;;;17.90;;
65871;SDS011;52653;50.080;21.992;2023-08-06T00:07:34;23.60;;;17.80;;
65871;SDS011;52653;50.080;21.992;2023-08-06T00:10:27;29.20;;;17.10;;
65871;SDS011;52653;50.080;21.992;2023-08-06T00:13:09;31.60;;;18.00;;
65871;SDS011;52653;50.080;21.992;2023-08-06T00:15:56;30.90;;;17.40;;
65871;SDS011;52653;50.080;21.992;2023-08-06T00:19:00;26.20;;;17.60;;
65871;SDS011;52653;50.080;21.992;2023-08-06T00:21:54;29.50;;;18.10;;
65871;SDS011;52653;50.080;21.992;2023-08-06T00:24:45;30.10;;;17.80;;
65871;SDS011;52653;50.080;21.992;2023-08-06T00:27:40;29.90;;;17.40;;
65871;SDS011;52653;50.080;21.992;2023-08-06T00:30:32;26.40;;;16.80;;
65871;SDS011;52653;50.080;21.992;2023-08-06T00:33:05;28.70;;;16.80;;
65871;SDS011;52653;50.080;21.992;2023-08-06T00:35:57;32.00;;;18.50;;
65871;SDS011;52653;50.080;21.992;2023-08-06T00:38:31;32.30;;;17.60;;
65871;SDS011;52653;50.080;21.992;2023-08-06T00:41:24;28.20;;;17.30;;
65871;SDS011;52653;50.080;21.992;2023-08-06T00:44:09;32.20;;;17.70;;
65871;SDS011;52653;50.080;21.992;2023-08-06T00:47:04;35.00;;;18.60;;
65871;SDS011;52653;50.080;21.992;2023-08-06T00:49:48;27.70;;;18.50;;
65871;SDS011;52653;50.080;21.992;2023-08-06T00:52:41;28.40;;;17.90;;
65871;SDS011;52653;50.080;21.992;2023-08-06T00:55:35;28.00;;;17.20;;
65871;SDS011;52653;50.080;21.992;2023-08-06T00:58:22;31.30;;;19.40;;
65871;SDS011;52653;50.080;21.992;2023-08-06T01:01:15;30.90;;;18.30;;
65871;SDS011;52653;50.080;21.992;2023-08-06T01:04:07;24.90;;;18.00;;
65871;SDS011;52653;50.080;21.992;2023-08-06T01:07:05;29.60;;;18.60;;
65871;SDS011;52653;50.080;21.992;2023-08-06T01:09:57;25.70;;;18.30;;
65871;SDS011;52653;50.080;21.992;2023-08-06T01:13:06;24.90;;;17.50;;
65871;SDS011;52653;50.080;21.992;2023-08-06T01:16:04;25.80;;;17.90;;
65871;SDS011;52653;50.080;21.992;2023-08-06T01:18:58;27.10;;;18.20;;
65871;SDS011;52653;50.080;21.992;2023-08-06T01:21:51;25.90;;;17.70;;
65871;SDS011;52653;50.080;21.992;2023-08-06T01:24:34;26.70;;;18.60;;
65871;SDS011;52653;50.080;21.992;2023-08-06T01:27:28;25.80;;;18.50;;
65871;SDS011;52653;50.080;21.992;2023-08-06T01:30:25;20.50;;;16.40;;
65871;SDS011;52653;50.080;21.992;2023-08-06T01:33:24;26.50;;;17.90;;
65871;SDS011;52653;50.080;21.992;2023-08-06T01:36:18;23.50;;;17.40;;
65871;SDS011;52653;50.080;21.992;2023-08-06T01:39:14;23.50;;;17.00;;
65871;SDS011;52653;50.080;21.992;2023-08-06T01:41:56;22.40;;;17.50;;
65871;SDS011;52653;50.080;21.992;2023-08-06T01:44:50;23.90;;;17.90;;
65871;SDS011;52653;50.080;21.992;2023-08-06T01:47:32;20.60;;;16.80;;
65871;SDS011;52653;50.080;21.992;2023-08-06T01:50:25;21.90;;;18.00;;
65871;SDS011;52653;50.080;21.992;2023-08-06T01:56:04;23.60;;;18.20;;
65871;SDS011;52653;50.080;21.992;2023-08-06T01:58:56;24.90;;;17.40;;
65871;SDS011;52653;50.080;21.992;2023-08-06T02:01:53;23.90;;;17.80;;
65871;SDS011;52653;50.080;21.992;2023-08-06T02:04:48;23.50;;;17.70;;
65871;SDS011;52653;50.080;21.992;2023-08-06T02:07:35;22.90;;;17.50;;
65871;SDS011;52653;50.080;21.992;2023-08-06T02:10:30;25.70;;;18.60;;
65871;SDS011;52653;50.080;21.992;2023-08-06T02:13:25;23.00;;;17.60;;
65871;SDS011;52653;50.080;21.992;2023-08-06T02:16:18;24.50;;;18.80;;
65871;SDS011;52653;50.080;21.992;2023-08-06T02:19:12;25.00;;;18.90;;
65871;SDS011;52653;50.080;21.992;2023-08-06T02:22:05;25.30;;;18.50;;
65871;SDS011;52653;50.080;21.992;2023-08-06T02:25:00;22.60;;;18.10;;
65871;SDS011;52653;50.080;21.992;2023-08-06T02:27:52;24.40;;;18.00;;
65871;SDS011;52653;50.080;21.992;2023-08-06T02:30:50;22.40;;;17.60;;
65871;SDS011;52653;50.080;21.992;2023-08-06T02:33:36;23.60;;;17.60;;
65871;SDS011;52653;50.080;21.992;2023-08-06T02:36:29;22.80;;;18.40;;
65871;SDS011;52653;50.080;21.992;2023-08-06T02:39:22;25.50;;;19.10;;
65871;SDS011;52653;50.080;21.992;2023-08-06T02:42:15;28.30;;;20.20;;
65871;SDS011;52653;50.080;21.992;2023-08-06T02:45:09;27.10;;;19.50;;
65871;SDS011;52653;50.080;21.992;2023-08-06T02:48:02;25.00;;;18.80;;
65871;SDS011;52653;50.080;21.992;2023-08-06T02:50:58;23.10;;;18.10;;
65871;SDS011;52653;50.080;21.992;2023-08-06T02:53:43;26.40;;;19.20;;
65871;SDS011;52653;50.080;21.992;2023-08-06T02:56:29;28.00;;;18.40;;
65871;SDS011;52653;50.080;21.992;2023-08-06T02:59:23;24.90;;;18.40;;
65871;SDS011;52653;50.080;21.992;2023-08-06T03:02:25;26.10;;;18.20;;
65871;SDS011;52653;50.080;21.992;2023-08-06T03:05:17;26.30;;;19.70;;
65871;SDS011;52653;50.080;21.992;2023-08-06T03:08:13;26.50;;;19.90;;
65871;SDS011;52653;50.080;21.992;2023-08-06T03:11:04;25.90;;;18.00;;
65871;SDS011;52653;50.080;21.992;2023-08-06T03:13:52;24.50;;;19.40;;
65871;SDS011;52653;50.080;21.992;2023-08-06T03:16:45;24.50;;;17.70;;
65871;SDS011;52653;50.080;21.992;2023-08-06T03:19:40;27.90;;;18.60;;
65871;SDS011;52653;50.080;21.992;2023-08-06T03:22:33;25.70;;;18.90;;
65871;SDS011;52653;50.080;21.992;2023-08-06T03:25:45;25.70;;;18.60;;
65871;SDS011;52653;50.080;21.992;2023-08-06T03:28:38;27.50;;;18.20;;
65871;SDS011;52653;50.080;21.992;2023-08-06T03:31:32;28.30;;;19.00;;
65871;SDS011;52653;50.080;21.992;2023-08-06T03:34:18;24.40;;;17.80;;
65871;SDS011;52653;50.080;21.992;2023-08-06T03:36:56;24.30;;;17.90;;
65871;SDS011;52653;50.080;21.992;2023-08-06T03:39:50;26.00;;;17.80;;
65871;SDS011;52653;50.080;21.992;2023-08-06T03:42:36;24.80;;;18.10;;
65871;SDS011;52653;50.080;21.992;2023-08-06T03:45:29;24.10;;;17.00;;
65871;SDS011;52653;50.080;21.992;2023-08-06T03:48:22;27.90;;;17.70;;
65871;SDS011;52653;50.080;21.992;2023-08-06T03:51:14;25.20;;;16.20;;
65871;SDS011;52653;50.080;21.992;2023-08-06T03:54:01;29.50;;;16.00;;
65871;SDS011;52653;50.080;21.992;2023-08-06T03:56:54;22.10;;;14.90;;
65871;SDS011;52653;50.080;21.992;2023-08-06T03:59:47;25.40;;;16.50;;
65871;SDS011;52653;50.080;21.992;2023-08-06T04:02:34;23.40;;;16.10;;
65871;SDS011;52653;50.080;21.992;2023-08-06T04:05:27;24.40;;;15.30;;
65871;SDS011;52653;50.080;21.992;2023-08-06T04:08:23;30.00;;;15.70;;
65871;SDS011;52653;50.080;21.992;2023-08-06T04:11:17;20.40;;;15.10;;
65871;SDS011;52653;50.080;21.992;2023-08-06T04:16:55;22.30;;;15.00;;
65871;SDS011;52653;50.080;21.992;2023-08-06T04:19:50;23.60;;;14.90;;
65871;SDS011;52653;50.080;21.992;2023-08-06T04:22:43;23.00;;;15.30;;
65871;SDS011;52653;50.080;21.992;2023-08-06T04:25:29;18.50;;;15.40;;
65871;SDS011;52653;50.080;21.992;2023-08-06T04:28:15;18.80;;;15.10;;
65871;SDS011;52653;50.080;21.992;2023-08-06T04:31:02;21.00;;;15.80;;
65871;SDS011;52653;50.080;21.992;2023-08-06T04:33:55;20.10;;;16.10;;
65871;SDS011;52653;50.080;21.992;2023-08-06T04:36:48;18.70;;;15.40;;
65871;SDS011;52653;50.080;21.992;2023-08-06T04:39:34;21.50;;;16.50;;
65871;SDS011;52653;50.080;21.992;2023-08-06T04:42:27;23.80;;;17.60;;
65871;SDS011;52653;50.080;21.992;2023-08-06T04:45:16;24.90;;;17.50;;
65871;SDS011;52653;50.080;21.992;2023-08-06T04:48:09;26.30;;;18.60;;
65871;SDS011;52653;50.080;21.992;2023-08-06T04:51:02;24.80;;;18.30;;
65871;SDS011;52653;50.080;21.992;2023-08-06T04:53:57;24.10;;;19.00;;
65871;SDS011;52653;50.080;21.992;2023-08-06T04:56:44;24.00;;;19.30;;
65871;SDS011;52653;50.080;21.992;2023-08-06T04:59:38;22.90;;;19.30;;
65871;SDS011;52653;50.080;21.992;2023-08-06T05:02:35;23.00;;;18.80;;
65871;SDS011;52653;50.080;21.992;2023-08-06T05:05:11;23.50;;;18.90;;
65871;SDS011;52653;50.080;21.992;2023-08-06T05:08:03;21.70;;;18.50;;
65871;SDS011;52653;50.080;21.992;2023-08-06T05:10:56;21.70;;;18.90;;
65871;SDS011;52653;50.080;21.992;2023-08-06T05:16:25;20.80;;;18.60;;
65871;SDS011;52653;50.080;21.992;2023-08-06T05:19:21;19.40;;;17.00;;
65871;SDS011;52653;50.080;21.992;2023-08-06T05:21:56;19.40;;;17.30;;
65871;SDS011;52653;50.080;21.992;2023-08-06T05:24:43;20.10;;;17.80;;
65871;SDS011;52653;50.080;21.992;2023-08-06T05:27:35;18.90;;;17.00;;
65871;SDS011;52653;50.080;21.992;2023-08-06T05:30:25;20.10;;;17.10;;
65871;SDS011;52653;50.080;21.992;2023-08-06T05:33:11;17.40;;;15.60;;
65871;SDS011;52653;50.080;21.992;2023-08-06T05:35:55;18.70;;;15.70;;
65871;SDS011;52653;50.080;21.992;2023-08-06T05:38:42;17.00;;;15.20;;
65871;SDS011;52653;50.080;21.992;2023-08-06T05:41:35;16.80;;;15.10;;
65871;SDS011;52653;50.080;21.992;2023-08-06T05:44:22;17.40;;;15.60;;
65871;SDS011;52653;50.080;21.992;2023-08-06T05:47:09;16.10;;;14.30;;
65871;SDS011;52653;50.080;21.992;2023-08-06T05:50:02;16.20;;;13.80;;
65871;SDS011;52653;50.080;21.992;2023-08-06T05:52:58;15.90;;;14.30;;
65871;SDS011;52653;50.080;21.992;2023-08-06T05:55:45;15.30;;;13.60;;
65871;SDS011;52653;50.080;21.992;2023-08-06T05:58:38;14.30;;;12.80;;
65871;SDS011;52653;50.080;21.992;2023-08-06T06:01:33;16.60;;;14.00;;
65871;SDS011;52653;50.080;21.992;2023-08-06T06:04:26;15.90;;;14.10;;
65871;SDS011;52653;50.080;21.992;2023-08-06T06:07:21;14.60;;;13.10;;
65871;SDS011;52653;50.080;21.992;2023-08-06T06:10:07;13.90;;;12.30;;
65871;SDS011;52653;50.080;21.992;2023-08-06T06:12:52;13.50;;;12.00;;
65871;SDS011;52653;50.080;21.992;2023-08-06T06:15:30;13.90;;;12.50;;
65871;SDS011;52653;50.080;21.992;2023-08-06T06:18:16;14.10;;;12.70;;
65871;SDS011;52653;50.080;21.992;2023-08-06T06:20:49;13.30;;;12.00;;
65871;SDS011;52653;50.080;21.992;2023-08-06T06:23:31;14.40;;;11.80;;
65871;SDS011;52653;50.080;21.992;2023-08-06T06:26:03;14.20;;;11.40;;
65871;SDS011;52653;50.080;21.992;2023-08-06T06:28:42;12.40;;;11.10;;
65871;SDS011;52653;50.080;21.992;2023-08-06T06:31:33;12.80;;;10.90;;
65871;SDS011;52653;50.080;21.992;2023-08-06T06:34:19;12.70;;;10.40;;
65871;SDS011;52653;50.080;21.992;2023-08-06T06:36:56;10.60;;;9.50;;
65871;SDS011;52653;50.080;21.992;2023-08-06T06:39:45;10.70;;;9.60;;
65871;SDS011;52653;50.080;21.992;2023-08-06T06:42:18;11.50;;;10.10;;
65871;SDS011;52653;50.080;21.992;2023-08-06T06:45:12;12.40;;;9.70;;
65871;SDS011;52653;50.080;21.992;2023-08-06T06:47:48;10.60;;;9.50;;
65871;SDS011;52653;50.080;21.992;2023-08-06T06:50:40;12.60;;;9.50;;
65871;SDS011;52653;50.080;21.992;2023-08-06T06:53:24;10.70;;;9.60;;
65871;SDS011;52653;50.080;21.992;2023-08-06T06:56:10;10.90;;;9.60;;
65871;SDS011;52653;50.080;21.992;2023-08-06T06:59:03;10.70;;;9.50;;
65871;SDS011;52653;50.080;21.992;2023-08-06T07:01:56;11.40;;;9.30;;
65871;SDS011;52653;50.080;21.992;2023-08-06T07:04:44;10.70;;;9.00;;
65871;SDS011;52653;50.080;21.992;2023-08-06T07:07:22;9.70;;;8.60;;
65871;SDS011;52653;50.080;21.992;2023-08-06T07:10:09;9.10;;;8.20;;
65871;SDS011;52653;50.080;21.992;2023-08-06T07:12:50;8.90;;;8.00;;
65871;SDS011;52653;50.080;21.992;2023-08-06T07:15:44;7.90;;;5.80;;
65871;SDS011;52653;50.080;21.992;2023-08-06T07:18:37;6.80;;;6.10;;
65871;SDS011;52653;50.080;21.992;2023-08-06T07:21:30;8.70;;;6.20;;
65871;SDS011;52653;50.080;21.992;2023-08-06T07:24:03;7.10;;;6.30;;
65871;SDS011;52653;50.080;21.992;2023-08-06T07:26:46;7.50;;;6.40;;
65871;SDS011;52653;50.080;21.992;2023-08-06T07:29:33;6.80;;;5.90;;
65871;SDS011;52653;50.080;21.992;2023-08-06T07:32:18;8.90;;;6.50;;
65871;SDS011;52653;50.080;21.992;2023-08-06T07:34:53;6.90;;;5.90;;
65871;SDS011;52653;50.080;21.992;2023-08-06T07:37:29;7.30;;;6.20;;
65871;SDS011;52653;50.080;21.992;2023-08-06T07:40:06;8.20;;;6.50;;
65871;SDS011;52653;50.080;21.992;2023-08-06T07:43:02;7.70;;;6.70;;
65871;SDS011;52653;50.080;21.992;2023-08-06T07:45:47;7.90;;;6.20;;
65871;SDS011;52653;50.080;21.992;2023-08-06T07:48:40;7.00;;;5.90;;
65871;SDS011;52653;50.080;21.992;2023-08-06T07:51:14;7.80;;;6.30;;
65871;SDS011;52653;50.080;21.992;2023-08-06T07:53:50;7.60;;;6.50;;
65871;SDS011;52653;50.080;21.992;2023-08-06T07:56:43;7.40;;;6.30;;
65871;SDS011;52653;50.080;21.992;2023-08-06T07:59:21;9.10;;;6.50;;
65871;SDS011;52653;50.080;21.992;2023-08-06T08:02:14;8.80;;;6.50;;
65871;SDS011;52653;50.080;21.992;2023-08-06T08:05:08;7.50;;;6.20;;
65871;SDS011;52653;50.080;21.992;2023-08-06T08:07:44;6.90;;;6.10;;
65871;SDS011;52653;50.080;21.992;2023-08-06T08:10:26;6.90;;;5.70;;
65871;SDS011;52653;50.080;21.992;2023-08-06T08:15:44;8.00;;;6.10;;
65871;SDS011;52653;50.080;21.992;2023-08-06T08:18:24;6.70;;;6.00;;
65871;SDS011;52653;50.080;21.992;2023-08-06T08:21:18;8.40;;;6.20;;
65871;SDS011;52653;50.080;21.992;2023-08-06T08:23:54;6.80;;;5.70;;
65871;SDS011;52653;50.080;21.992;2023-08-06T08:26:46;7.90;;;6.10;;
65871;SDS011;52653;50.080;21.992;2023-08-06T08:29:23;6.90;;;5.50;;
65871;SDS011;52653;50.080;21.992;2023-08-06T08:31:58;7.00;;;5.70;;
65871;SDS011;52653;50.080;21.992;2023-08-06T08:34:34;6.60;;;5.80;;
65871;SDS011;52653;50.080;21.992;2023-08-06T08:37:12;6.50;;;5.80;;
65871;SDS011;52653;50.080;21.992;2023-08-06T08:40:07;7.20;;;5.60;;
65871;SDS011;52653;50.080;21.992;2023-08-06T08:43:02;7.30;;;5.80;;
65871;SDS011;52653;50.080;21.992;2023-08-06T08:45:56;7.30;;;5.80;;
65871;SDS011;52653;50.080;21.992;2023-08-06T08:48:53;6.40;;;5.80;;
65871;SDS011;52653;50.080;21.992;2023-08-06T08:51:46;7.80;;;5.80;;
65871;SDS011;52653;50.080;21.992;2023-08-06T08:54:41;6.70;;;5.70;;
65871;SDS011;52653;50.080;21.992;2023-08-06T08:57:26;6.50;;;5.70;;
65871;SDS011;52653;50.080;21.992;2023-08-06T09:00:19;6.50;;;5.50;;
65871;SDS011;52653;50.080;21.992;2023-08-06T09:02:52;6.80;;;5.50;;
65871;SDS011;52653;50.080;21.992;2023-08-06T09:05:47;8.00;;;5.50;;
65871;SDS011;52653;50.080;21.992;2023-08-06T09:08:27;7.80;;;5.60;;
65871;SDS011;52653;50.080;21.992;2023-08-06T09:11:20;10.30;;;5.50;;
65871;SDS011;52653;50.080;21.992;2023-08-06T09:13:59;6.80;;;5.80;;
65871;SDS011;52653;50.080;21.992;2023-08-06T09:16:52;7.00;;;5.80;;
65871;SDS011;52653;50.080;21.992;2023-08-06T09:19:46;6.60;;;5.70;;
65871;SDS011;52653;50.080;21.992;2023-08-06T09:22:38;7.20;;;5.70;;
65871;SDS011;52653;50.080;21.992;2023-08-06T09:25:22;6.40;;;5.80;;
65871;SDS011;52653;50.080;21.992;2023-08-06T09:28:18;8.50;;;5.90;;
65871;SDS011;52653;50.080;21.992;2023-08-06T09:31:04;7.20;;;5.80;;
65871;SDS011;52653;50.080;21.992;2023-08-06T09:36:43;5.20;;;4.40;;
65871;SDS011;52653;50.080;21.992;2023-08-06T09:39:26;5.40;;;4.00;;
65871;SDS011;52653;50.080;21.992;2023-08-06T09:42:20;4.60;;;3.50;;
65871;SDS011;52653;50.080;21.992;2023-08-06T09:45:05;4.70;;;3.70;;
65871;SDS011;52653;50.080;21.992;2023-08-06T09:47:49;5.30;;;3.30;;
65871;SDS011;52653;50.080;21.992;2023-08-06T09:50:42;4.40;;;3.20;;
65871;SDS011;52653;50.080;21.992;2023-08-06T09:53:38;3.80;;;2.90;;
65871;SDS011;52653;50.080;21.992;2023-08-06T09:56:33;4.00;;;3.00;;
65871;SDS011;52653;50.080;21.992;2023-08-06T09:59:19;4.40;;;2.90;;
65871;SDS011;52653;50.080;21.992;2023-08-06T10:01:58;4.80;;;3.30;;
65871;SDS011;52653;50.080;21.992;2023-08-06T10:04:53;4.60;;;3.10;;
65871;SDS011;52653;50.080;21.992;2023-08-06T10:07:34;5.10;;;3.20;;
65871;SDS011;52653;50.080;21.992;2023-08-06T10:10:28;3.90;;;2.80;;
65871;SDS011;52653;50.080;21.992;2023-08-06T10:13:22;4.10;;;3.00;;
65871;SDS011;52653;50.080;21.992;2023-08-06T10:16:16;4.90;;;3.10;;
65871;SDS011;52653;50.080;21.992;2023-08-06T10:19:12;3.80;;;2.80;;
65871;SDS011;52653;50.080;21.992;2023-08-06T10:22:10;2.80;;;2.20;;
65871;SDS011;52653;50.080;21.992;2023-08-06T10:25:06;3.10;;;1.90;;
65871;SDS011;52653;50.080;21.992;2023-08-06T10:27:53;2.80;;;1.90;;
65871;SDS011;52653;50.080;21.992;2023-08-06T10:30:26;3.00;;;1.90;;
65871;SDS011;52653;50.080;21.992;2023-08-06T10:33:23;2.10;;;1.70;;
65871;SDS011;52653;50.080;21.992;2023-08-06T10:36:13;3.10;;;2.00;;
65871;SDS011;52653;50.080;21.992;2023-08-06T10:39:07;2.70;;;2.00;;
65871;SDS011;52653;50.080;21.992;2023-08-06T10:42:23;3.00;;;2.00;;
65871;SDS011;52653;50.080;21.992;2023-08-06T10:45:20;2.60;;;2.00;;
65871;SDS011;52653;50.080;21.992;2023-08-06T10:48:07;2.70;;;1.80;;
65871;SDS011;52653;50.080;21.992;2023-08-06T10:50:50;2.10;;;1.60;;
65871;SDS011;52653;50.080;21.992;2023-08-06T10:53:44;2.50;;;1.80;;
65871;SDS011;52653;50.080;21.992;2023-08-06T10:56:30;2.40;;;1.60;;
65871;SDS011;52653;50.080;21.992;2023-08-06T10:59:21;3.90;;;1.90;;
65871;SDS011;52653;50.080;21.992;2023-08-06T11:02:14;3.10;;;1.90;;
65871;SDS011;52653;50.080;21.992;2023-08-06T11:05:08;2.50;;;1.90;;
65871;SDS011;52653;50.080;21.992;2023-08-06T11:10:44;2.60;;;1.90;;
65871;SDS011;52653;50.080;21.992;2023-08-06T11:13:51;3.60;;;2.00;;
65871;SDS011;52653;50.080;21.992;2023-08-06T11:16:36;3.30;;;1.90;;
65871;SDS011;52653;50.080;21.992;2023-08-06T11:19:09;2.80;;;2.00;;
65871;SDS011;52653;50.080;21.992;2023-08-06T11:22:02;3.90;;;2.10;;
65871;SDS011;52653;50.080;21.992;2023-08-06T11:24:35;3.20;;;1.90;;
65871;SDS011;52653;50.080;21.992;2023-08-06T11:27:25;3.30;;;2.00;;
65871;SDS011;52653;50.080;21.992;2023-08-06T11:30:19;2.90;;;1.80;;
65871;SDS011;52653;50.080;21.992;2023-08-06T11:33:12;2.30;;;1.80;;
65871;SDS011;52653;50.080;21.992;2023-08-06T11:36:06;2.10;;;1.40;;
65871;SDS011;52653;50.080;21.992;2023-08-06T11:38:58;3.00;;;1.20;;
65871;SDS011;52653;50.080;21.992;2023-08-06T11:41:37;2.70;;;1.30;;
65871;SDS011;52653;50.080;21.992;2023-08-06T11:44:21;3.30;;;1.00;;
65871;SDS011;52653;50.080;21.992;2023-08-06T11:47:15;2.00;;;1.20;;
65871;SDS011;52653;50.080;21.992;2023-08-06T11:50:07;2.80;;;1.10;;
65871;SDS011;52653;50.080;21.992;2023-08-06T11:53:13;1.70;;;0.90;;
65871;SDS011;52653;50.080;21.992;2023-08-06T11:56:07;2.40;;;1.10;;
65871;SDS011;52653;50.080;21.992;2023-08-06T11:59:01;2.80;;;1.30;;
65871;SDS011;52653;50.080;21.992;2023-08-06T12:01:55;2.00;;;1.00;;
65871;SDS011;52653;50.080;21.992;2023-08-06T12:05:01;1.70;;;1.10;;
65871;SDS011;52653;50.080;21.992;2023-08-06T12:08:01;3.00;;;1.20;;
65871;SDS011;52653;50.080;21.992;2023-08-06T12:10:54;1.70;;;1.00;;
65871;SDS011;52653;50.080;21.992;2023-08-06T12:13:41;1.30;;;1.00;;
65871;SDS011;52653;50.080;21.992;2023-08-06T12:16:27;5.80;;;1.10;;
65871;SDS011;52653;50.080;21.992;2023-08-06T12:19:14;2.30;;;1.00;;
65871;SDS011;52653;50.080;21.992;2023-08-06T12:22:07;4.50;;;0.90;;
65871;SDS011;52653;50.080;21.992;2023-08-06T12:24:57;1.60;;;0.90;;
65871;SDS011;52653;50.080;21.992;2023-08-06T12:27:42;1.60;;;0.90;;
65871;SDS011;52653;50.080;21.992;2023-08-06T12:30:27;1.60;;;0.90;;
65871;SDS011;52653;50.080;21.992;2023-08-06T12:33:20;1.60;;;1.00;;
65871;SDS011;52653;50.080;21.992;2023-08-06T12:36:06;2.20;;;0.90;;
65871;SDS011;52653;50.080;21.992;2023-08-06T12:38:55;2.60;;;1.10;;
65871;SDS011;52653;50.080;21.992;2023-08-06T12:41:41;1.90;;;1.10;;
65871;SDS011;52653;50.080;21.992;2023-08-06T12:44:27;2.00;;;0.80;;
65871;SDS011;52653;50.080;21.992;2023-08-06T12:47:00;2.10;;;0.90;;
65871;SDS011;52653;50.080;21.992;2023-08-06T12:49:52;1.40;;;1.00;;
65871;SDS011;52653;50.080;21.992;2023-08-06T12:52:45;2.70;;;1.00;;
65871;SDS011;52653;50.080;21.992;2023-08-06T12:55:39;1.60;;;1.00;;
65871;SDS011;52653;50.080;21.992;2023-08-06T12:58:32;2.30;;;1.00;;
65871;SDS011;52653;50.080;21.992;2023-08-06T13:01:27;1.00;;;0.80;;
65871;SDS011;52653;50.080;21.992;2023-08-06T13:04:22;2.30;;;1.10;;
65871;SDS011;52653;50.080;21.992;2023-08-06T13:07:08;2.00;;;1.00;;
65871;SDS011;52653;50.080;21.992;2023-08-06T13:09:51;1.20;;;0.90;;
65871;SDS011;52653;50.080;21.992;2023-08-06T13:12:44;2.70;;;1.00;;
65871;SDS011;52653;50.080;21.992;2023-08-06T13:15:39;2.50;;;1.00;;
65871;SDS011;52653;50.080;21.992;2023-08-06T13:18:19;1.70;;;0.90;;
65871;SDS011;52653;50.080;21.992;2023-08-06T13:20:54;3.10;;;1.00;;
65871;SDS011;52653;50.080;21.992;2023-08-06T13:23:39;1.70;;;1.00;;
65871;SDS011;52653;50.080;21.992;2023-08-06T13:26:25;2.20;;;1.10;;
65871;SDS011;52653;50.080;21.992;2023-08-06T13:29:20;1.90;;;0.90;;
65871;SDS011;52653;50.080;21.992;2023-08-06T13:32:04;2.30;;;0.90;;
65871;SDS011;52653;50.080;21.992;2023-08-06T13:34:57;1.80;;;1.10;;
65871;SDS011;52653;50.080;21.992;2023-08-06T13:37:52;2.80;;;1.10;;
65871;SDS011;52653;50.080;21.992;2023-08-06T13:40:43;2.10;;;0.90;;
65871;SDS011;52653;50.080;21.992;2023-08-06T13:43:30;2.50;;;1.10;;
65871;SDS011;52653;50.080;21.992;2023-08-06T13:46:17;1.80;;;1.10;;
65871;SDS011;52653;50.080;21.992;2023-08-06T13:49:06;3.30;;;1.30;;
65871;SDS011;52653;50.080;21.992;2023-08-06T13:51:46;1.90;;;1.10;;
65871;SDS011;52653;50.080;21.992;2023-08-06T13:54:28;1.90;;;1.20;;
65871;SDS011;52653;50.080;21.992;2023-08-06T13:57:04;1.60;;;1.00;;
65871;SDS011;52653;50.080;21.992;2023-08-06T13:59:51;1.80;;;1.10;;
65871;SDS011;52653;50.080;21.992;2023-08-06T14:02:39;1.70;;;0.90;;
65871;SDS011;52653;50.080;21.992;2023-08-06T14:05:28;1.90;;;0.80;;
65871;SDS011;52653;50.080;21.992;2023-08-06T14:08:21;1.30;;;0.90;;
65871;SDS011;52653;50.080;21.992;2023-08-06T14:10:57;1.40;;;1.00;;
65871;SDS011;52653;50.080;21.992;2023-08-06T14:13:42;2.40;;;1.00;;
65871;SDS011;52653;50.080;21.992;2023-08-06T14:16:27;1.40;;;0.90;;
65871;SDS011;52653;50.080;21.992;2023-08-06T14:19:20;1.30;;;0.90;;
65871;SDS011;52653;50.080;21.992;2023-08-06T14:22:13;2.10;;;1.00;;
65871;SDS011;52653;50.080;21.992;2023-08-06T14:24:56;2.50;;;1.00;;
65871;SDS011;52653;50.080;21.992;2023-08-06T14:27:48;1.60;;;0.90;;
65871;SDS011;52653;50.080;21.992;2023-08-06T14:30:43;1.60;;;1.00;;
65871;SDS011;52653;50.080;21.992;2023-08-06T14:33:36;1.60;;;0.90;;
65871;SDS011;52653;50.080;21.992;2023-08-06T14:36:21;2.30;;;1.10;;
65871;SDS011;52653;50.080;21.992;2023-08-06T14:39:14;3.00;;;1.10;;
65871;SDS011;52653;50.080;21.992;2023-08-06T14:42:00;3.60;;;1.10;;
65871;SDS011;52653;50.080;21.992;2023-08-06T14:44:52;1.20;;;0.70;;
65871;SDS011;52653;50.080;21.992;2023-08-06T14:47:45;2.80;;;1.00;;
65871;SDS011;52653;50.080;21.992;2023-08-06T14:50:39;1.60;;;0.80;;
65871;SDS011;52653;50.080;21.992;2023-08-06T14:53:32;1.70;;;1.00;;
65871;SDS011;52653;50.080;21.992;2023-08-06T14:56:16;0.90;;;0.60;;
65871;SDS011;52653;50.080;21.992;2023-08-06T14:59:12;1.30;;;0.90;;
65871;SDS011;52653;50.080;21.992;2023-08-06T15:01:59;1.60;;;0.70;;
65871;SDS011;52653;50.080;21.992;2023-08-06T15:04:46;1.60;;;0.80;;
65871;SDS011;52653;50.080;21.992;2023-08-06T15:07:43;1.20;;;0.60;;
65871;SDS011;52653;50.080;21.992;2023-08-06T15:10:36;0.70;;;0.60;;
65871;SDS011;52653;50.080;21.992;2023-08-06T15:13:30;1.70;;;0.70;;
65871;SDS011;52653;50.080;21.992;2023-08-06T15:16:22;1.30;;;0.60;;
65871;SDS011;52653;50.080;21.992;2023-08-06T15:19:18;1.90;;;0.70;;
65871;SDS011;52653;50.080;21.992;2023-08-06T15:22:10;1.30;;;0.50;;
65871;SDS011;52653;50.080;21.992;2023-08-06T15:25:04;2.10;;;0.50;;
65871;SDS011;52653;50.080;21.992;2023-08-06T15:27:43;1.20;;;0.40;;
65871;SDS011;52653;50.080;21.992;2023-08-06T15:30:28;1.00;;;0.50;;
65871;SDS011;52653;50.080;21.992;2023-08-06T15:33:21;0.90;;;0.50;;
65871;SDS011;52653;50.080;21.992;2023-08-06T15:36:14;0.70;;;0.40;;
65871;SDS011;52653;50.080;21.992;2023-08-06T15:39:11;1.30;;;0.60;;
65871;SDS011;52653;50.080;21.992;2023-08-06T15:41:58;1.80;;;0.60;;
65871;SDS011;52653;50.080;21.992;2023-08-06T15:44:52;1.10;;;0.40;;
65871;SDS011;52653;50.080;21.992;2023-08-06T15:47:45;1.70;;;0.60;;
65871;SDS011;52653;50.080;21.992;2023-08-06T15:50:38;1.20;;;0.70;;
65871;SDS011;52653;50.080;21.992;2023-08-06T15:53:27;1.20;;;0.50;;
65871;SDS011;52653;50.080;21.992;2023-08-06T15:56:14;1.10;;;0.60;;
65871;SDS011;52653;50.080;21.992;2023-08-06T16:02:14;1.40;;;0.50;;
65871;SDS011;52653;50.080;21.992;2023-08-06T16:04:58;1.10;;;0.60;;
65871;SDS011;52653;50.080;21.992;2023-08-06T16:07:51;0.70;;;0.40;;
65871;SDS011;52653;50.080;21.992;2023-08-06T16:10:44;2.60;;;0.80;;
65871;SDS011;52653;50.080;21.992;2023-08-06T16:13:31;0.70;;;0.50;;
65871;SDS011;52653;50.080;21.992;2023-08-06T16:16:24;1.60;;;0.60;;
65871;SDS011;52653;50.080;21.992;2023-08-06T16:19:17;1.10;;;0.60;;
65871;SDS011;52653;50.080;21.992;2023-08-06T16:21:55;3.00;;;0.40;;
65871;SDS011;52653;50.080;21.992;2023-08-06T16:24:41;0.60;;;0.20;;
65871;SDS011;52653;50.080;21.992;2023-08-06T16:27:17;3.50;;;0.40;;
65871;SDS011;52653;50.080;21.992;2023-08-06T16:30:10;1.20;;;0.30;;
65871;SDS011;52653;50.080;21.992;2023-08-06T16:33:04;2.60;;;0.40;;
65871;SDS011;52653;50.080;21.992;2023-08-06T16:35:57;1.50;;;0.30;;
65871;SDS011;52653;50.080;21.992;2023-08-06T16:38:50;1.70;;;0.30;;
65871;SDS011;52653;50.080;21.992;2023-08-06T16:41:43;1.10;;;0.50;;
65871;SDS011;52653;50.080;21.992;2023-08-06T16:47:11;0.60;;;0.30;;
65871;SDS011;52653;50.080;21.992;2023-08-06T16:50:04;1.20;;;0.50;;
65871;SDS011;52653;50.080;21.992;2023-08-06T16:52:54;1.40;;;0.30;;
65871;SDS011;52653;50.080;21.992;2023-08-06T16:55:31;0.70;;;0.20;;